sensor_id;sensor_type;location;lat;lon;timestamp;temperature;humidity
35700;DHT22;21818;51.078;12.108;2023-08-06T00:01:31;19.30;96.10
35700;DHT22;21818;51.078;12.108;2023-08-06T00:03:56;19.30;96.00
35700;DHT22;21818;51.078;12.108;2023-08-06T00:06:22;19.30;96.10
35700;DHT22;21818;51.078;12.108;2023-08-06T00:08:47;19.30;96.10
35700;DHT22;21818;51.078;12.108;2023-08-06T00:11:13;19.30;96.20
35700;DHT22;21818;51.078;12.108;2023-08-06T00:13:39;19.20;96.30
35700;DHT22;21818;51.078;12.108;2023-08-06T00:16:13;19.20;96.30
35700;DHT22;21818;51.078;12.108;2023-08-06T00:18:39;19.30;96.40
35700;DHT22;21818;51.078;12.108;2023-08-06T00:21:05;19.30;96.50
35700;DHT22;21818;51.078;12.108;2023-08-06T00:23:31;19.30;96.20
35700;DHT22;21818;51.078;12.108;2023-08-06T00:25:56;19.40;96.10
35700;DHT22;21818;51.078;12.108;2023-08-06T00:28:22;19.60;95.70
35700;DHT22;21818;51.078;12.108;2023-08-06T00:30:54;19.70;95.70
35700;DHT22;21818;51.078;12.108;2023-08-06T00:33:21;19.70;95.60
35700;DHT22;21818;51.078;12.108;2023-08-06T00:35:47;19.70;95.50
35700;DHT22;21818;51.078;12.108;2023-08-06T00:38:13;19.70;95.50
35700;DHT22;21818;51.078;12.108;2023-08-06T00:40:38;19.60;95.50
35700;DHT22;21818;51.078;12.108;2023-08-06T00:43:04;19.60;95.50
35700;DHT22;21818;51.078;12.108;2023-08-06T00:45:30;19.60;95.50
35700;DHT22;21818;51.078;12.108;2023-08-06T00:47:56;19.60;95.60
35700;DHT22;21818;51.078;12.108;2023-08-06T00:50:22;19.70;95.40
35700;DHT22;21818;51.078;12.108;2023-08-06T00:52:51;19.70;95.40
35700;DHT22;21818;51.078;12.108;2023-08-06T00:55:17;19.60;95.40
35700;DHT22;21818;51.078;12.108;2023-08-06T00:57:43;19.60;95.30
35700;DHT22;21818;51.078;12.108;2023-08-06T01:00:09;19.60;95.30
35700;DHT22;21818;51.078;12.108;2023-08-06T01:02:35;19.60;95.20
35700;DHT22;21818;51.078;12.108;2023-08-06T01:05:00;19.50;95.10
35700;DHT22;21818;51.078;12.108;2023-08-06T01:10:02;19.50;95.10
35700;DHT22;21818;51.078;12.108;2023-08-06T01:15:20;19.50;95.00
35700;DHT22;21818;51.078;12.108;2023-08-06T01:17:47;19.40;95.00
35700;DHT22;21818;51.078;12.108;2023-08-06T01:20:13;19.40;94.90
35700;DHT22;21818;51.078;12.108;2023-08-06T01:22:39;19.40;95.00
35700;DHT22;21818;51.078;12.108;2023-08-06T01:25:05;19.30;95.10
35700;DHT22;21818;51.078;12.108;2023-08-06T01:27:44;19.20;95.10
35700;DHT22;21818;51.078;12.108;2023-08-06T01:30:30;19.20;95.20
35700;DHT22;21818;51.078;12.108;2023-08-06T01:33:04;19.30;95.30
35700;DHT22;21818;51.078;12.108;2023-08-06T01:35:29;19.40;95.00
35700;DHT22;21818;51.078;12.108;2023-08-06T01:37:55;19.30;95.10
35700;DHT22;21818;51.078;12.108;2023-08-06T01:40:22;19.40;95.20
35700;DHT22;21818;51.078;12.108;2023-08-06T01:42:47;19.60;94.90
35700;DHT22;21818;51.078;12.108;2023-08-06T01:45:13;19.40;94.80
35700;DHT22;21818;51.078;12.108;2023-08-06T01:47:39;19.20;95.10
35700;DHT22;21818;51.078;12.108;2023-08-06T01:50:05;19.00;95.20
35700;DHT22;21818;51.078;12.108;2023-08-06T01:52:30;18.90;95.40
35700;DHT22;21818;51.078;12.108;2023-08-06T01:54:56;18.80;95.60
35700;DHT22;21818;51.078;12.108;2023-08-06T01:57:22;18.80;95.70
35700;DHT22;21818;51.078;12.108;2023-08-06T01:59:47;18.90;95.70
35700;DHT22;21818;51.078;12.108;2023-08-06T02:02:13;19.20;95.50
35700;DHT22;21818;51.078;12.108;2023-08-06T02:04:39;19.50;95.20
35700;DHT22;21818;51.078;12.108;2023-08-06T02:07:04;19.60;95.00
35700;DHT22;21818;51.078;12.108;2023-08-06T02:09:30;19.50;94.80
35700;DHT22;21818;51.078;12.108;2023-08-06T02:11:55;19.30;95.00
35700;DHT22;21818;51.078;12.108;2023-08-06T02:14:21;19.20;95.10
35700;DHT22;21818;51.078;12.108;2023-08-06T02:16:46;19.20;95.30
35700;DHT22;21818;51.078;12.108;2023-08-06T02:19:12;19.20;95.00
35700;DHT22;21818;51.078;12.108;2023-08-06T02:21:38;19.00;95.20
35700;DHT22;21818;51.078;12.108;2023-08-06T02:24:03;18.80;95.40
35700;DHT22;21818;51.078;12.108;2023-08-06T02:26:29;18.70;95.80
35700;DHT22;21818;51.078;12.108;2023-08-06T02:28:55;19.00;95.60
35700;DHT22;21818;51.078;12.108;2023-08-06T02:31:20;19.20;95.30
35700;DHT22;21818;51.078;12.108;2023-08-06T02:33:46;19.40;95.10
35700;DHT22;21818;51.078;12.108;2023-08-06T02:36:11;19.60;94.80
35700;DHT22;21818;51.078;12.108;2023-08-06T02:38:37;19.70;94.70
35700;DHT22;21818;51.078;12.108;2023-08-06T02:41:03;19.60;94.70
35700;DHT22;21818;51.078;12.108;2023-08-06T02:43:29;19.60;94.70
35700;DHT22;21818;51.078;12.108;2023-08-06T02:45:58;19.60;94.60
35700;DHT22;21818;51.078;12.108;2023-08-06T02:48:24;19.70;94.60
35700;DHT22;21818;51.078;12.108;2023-08-06T02:50:50;19.50;94.70
35700;DHT22;21818;51.078;12.108;2023-08-06T02:53:15;19.40;94.80
35700;DHT22;21818;51.078;12.108;2023-08-06T02:55:46;19.40;95.00
35700;DHT22;21818;51.078;12.108;2023-08-06T02:58:15;19.50;94.90
35700;DHT22;21818;51.078;12.108;2023-08-06T03:00:41;19.60;94.70
35700;DHT22;21818;51.078;12.108;2023-08-06T03:03:08;19.60;94.60
35700;DHT22;21818;51.078;12.108;2023-08-06T03:05:34;19.60;94.70
35700;DHT22;21818;51.078;12.108;2023-08-06T03:07:59;19.60;94.70
35700;DHT22;21818;51.078;12.108;2023-08-06T03:10:25;19.70;94.60
35700;DHT22;21818;51.078;12.108;2023-08-06T03:12:50;19.70;94.60
35700;DHT22;21818;51.078;12.108;2023-08-06T03:15:16;19.70;94.50
35700;DHT22;21818;51.078;12.108;2023-08-06T03:17:41;19.80;94.40
35700;DHT22;21818;51.078;12.108;2023-08-06T03:20:08;19.70;94.40
35700;DHT22;21818;51.078;12.108;2023-08-06T03:22:33;19.70;94.50
35700;DHT22;21818;51.078;12.108;2023-08-06T03:24:59;19.70;94.40
35700;DHT22;21818;51.078;12.108;2023-08-06T03:27:24;19.70;94.40
35700;DHT22;21818;51.078;12.108;2023-08-06T03:29:50;19.60;94.60
35700;DHT22;21818;51.078;12.108;2023-08-06T03:32:16;19.50;94.60
35700;DHT22;21818;51.078;12.108;2023-08-06T03:34:41;19.50;94.50
35700;DHT22;21818;51.078;12.108;2023-08-06T03:37:07;19.50;94.60
35700;DHT22;21818;51.078;12.108;2023-08-06T03:39:32;19.60;94.50
35700;DHT22;21818;51.078;12.108;2023-08-06T03:41:58;19.60;94.50
35700;DHT22;21818;51.078;12.108;2023-08-06T03:44:23;19.60;94.40
35700;DHT22;21818;51.078;12.108;2023-08-06T03:46:49;19.60;94.40
35700;DHT22;21818;51.078;12.108;2023-08-06T03:49:15;19.50;94.50
35700;DHT22;21818;51.078;12.108;2023-08-06T03:51:40;19.40;94.60
35700;DHT22;21818;51.078;12.108;2023-08-06T03:54:06;19.50;94.70
35700;DHT22;21818;51.078;12.108;2023-08-06T03:56:31;19.60;94.50
35700;DHT22;21818;51.078;12.108;2023-08-06T03:58:57;19.60;94.40
35700;DHT22;21818;51.078;12.108;2023-08-06T04:01:22;19.50;94.60
35700;DHT22;21818;51.078;12.108;2023-08-06T04:03:48;19.60;94.50
35700;DHT22;21818;51.078;12.108;2023-08-06T04:06:14;19.50;94.60
35700;DHT22;21818;51.078;12.108;2023-08-06T04:08:39;19.50;94.60
35700;DHT22;21818;51.078;12.108;2023-08-06T04:11:05;19.40;94.60
35700;DHT22;21818;51.078;12.108;2023-08-06T04:13:30;19.40;94.70
35700;DHT22;21818;51.078;12.108;2023-08-06T04:16:01;19.50;94.60
35700;DHT22;21818;51.078;12.108;2023-08-06T04:18:26;19.40;94.50
35700;DHT22;21818;51.078;12.108;2023-08-06T04:20:52;19.50;94.50
35700;DHT22;21818;51.078;12.108;2023-08-06T04:23:20;19.30;94.60
35700;DHT22;21818;51.078;12.108;2023-08-06T04:25:46;19.40;94.60
35700;DHT22;21818;51.078;12.108;2023-08-06T04:28:12;19.40;94.60
35700;DHT22;21818;51.078;12.108;2023-08-06T04:30:38;19.40;94.50
35700;DHT22;21818;51.078;12.108;2023-08-06T04:33:03;19.40;94.50
35700;DHT22;21818;51.078;12.108;2023-08-06T04:35:29;19.40;94.40
35700;DHT22;21818;51.078;12.108;2023-08-06T04:37:55;19.20;94.70
35700;DHT22;21818;51.078;12.108;2023-08-06T04:40:20;19.10;94.80
35700;DHT22;21818;51.078;12.108;2023-08-06T04:42:46;19.20;95.00
35700;DHT22;21818;51.078;12.108;2023-08-06T04:45:11;19.20;94.70
35700;DHT22;21818;51.078;12.108;2023-08-06T04:47:37;19.10;94.60
35700;DHT22;21818;51.078;12.108;2023-08-06T04:50:03;19.10;94.60
35700;DHT22;21818;51.078;12.108;2023-08-06T04:52:28;18.90;94.70
35700;DHT22;21818;51.078;12.108;2023-08-06T04:54:54;18.70;95.00
35700;DHT22;21818;51.078;12.108;2023-08-06T04:57:20;18.60;95.20
35700;DHT22;21818;51.078;12.108;2023-08-06T04:59:46;18.80;95.10
35700;DHT22;21818;51.078;12.108;2023-08-06T05:02:12;19.10;94.80
35700;DHT22;21818;51.078;12.108;2023-08-06T05:04:37;19.10;94.80
35700;DHT22;21818;51.078;12.108;2023-08-06T05:07:04;19.10;94.70
35700;DHT22;21818;51.078;12.108;2023-08-06T05:09:30;19.20;94.60
35700;DHT22;21818;51.078;12.108;2023-08-06T05:11:56;19.10;94.60
35700;DHT22;21818;51.078;12.108;2023-08-06T05:14:21;19.20;94.60
35700;DHT22;21818;51.078;12.108;2023-08-06T05:16:47;19.50;94.50
35700;DHT22;21818;51.078;12.108;2023-08-06T05:19:12;19.80;94.10
35700;DHT22;21818;51.078;12.108;2023-08-06T05:21:38;20.10;93.70
35700;DHT22;21818;51.078;12.108;2023-08-06T05:24:04;20.20;93.60
35700;DHT22;21818;51.078;12.108;2023-08-06T05:26:29;20.20;93.50
35700;DHT22;21818;51.078;12.108;2023-08-06T05:28:55;20.10;93.50
35700;DHT22;21818;51.078;12.108;2023-08-06T05:31:20;20.10;93.50
35700;DHT22;21818;51.078;12.108;2023-08-06T05:33:46;19.90;93.50
35700;DHT22;21818;51.078;12.108;2023-08-06T05:36:11;19.90;93.70
35700;DHT22;21818;51.078;12.108;2023-08-06T05:38:37;19.90;93.70
35700;DHT22;21818;51.078;12.108;2023-08-06T05:41:03;19.80;93.70
35700;DHT22;21818;51.078;12.108;2023-08-06T05:43:29;19.90;93.70
35700;DHT22;21818;51.078;12.108;2023-08-06T05:45:55;20.10;93.50
35700;DHT22;21818;51.078;12.108;2023-08-06T05:48:21;20.30;93.30
35700;DHT22;21818;51.078;12.108;2023-08-06T05:50:48;20.20;93.20
35700;DHT22;21818;51.078;12.108;2023-08-06T05:53:13;19.90;93.30
35700;DHT22;21818;51.078;12.108;2023-08-06T05:55:39;19.70;93.60
35700;DHT22;21818;51.078;12.108;2023-08-06T05:58:04;19.60;93.70
35700;DHT22;21818;51.078;12.108;2023-08-06T06:00:30;19.60;93.70
35700;DHT22;21818;51.078;12.108;2023-08-06T06:02:56;19.50;93.80
35700;DHT22;21818;51.078;12.108;2023-08-06T06:05:21;19.50;93.80
35700;DHT22;21818;51.078;12.108;2023-08-06T06:07:47;19.60;93.70
35700;DHT22;21818;51.078;12.108;2023-08-06T06:10:12;19.50;93.60
35700;DHT22;21818;51.078;12.108;2023-08-06T06:12:38;19.40;93.70
35700;DHT22;21818;51.078;12.108;2023-08-06T06:15:05;19.40;93.70
35700;DHT22;21818;51.078;12.108;2023-08-06T06:17:30;19.20;93.80
35700;DHT22;21818;51.078;12.108;2023-08-06T06:19:56;19.20;93.90
35700;DHT22;21818;51.078;12.108;2023-08-06T06:22:22;19.30;94.00
35700;DHT22;21818;51.078;12.108;2023-08-06T06:24:47;19.40;93.90
35700;DHT22;21818;51.078;12.108;2023-08-06T06:27:13;19.40;93.80
35700;DHT22;21818;51.078;12.108;2023-08-06T06:29:39;19.40;93.80
35700;DHT22;21818;51.078;12.108;2023-08-06T06:32:05;19.50;93.80
35700;DHT22;21818;51.078;12.108;2023-08-06T06:34:30;19.70;93.60
35700;DHT22;21818;51.078;12.108;2023-08-06T06:36:56;19.80;93.40
35700;DHT22;21818;51.078;12.108;2023-08-06T06:39:21;19.90;93.20
35700;DHT22;21818;51.078;12.108;2023-08-06T06:41:47;19.90;93.20
35700;DHT22;21818;51.078;12.108;2023-08-06T06:44:13;20.00;93.10
35700;DHT22;21818;51.078;12.108;2023-08-06T06:46:39;20.00;93.10
35700;DHT22;21818;51.078;12.108;2023-08-06T06:49:04;20.00;93.00
35700;DHT22;21818;51.078;12.108;2023-08-06T06:51:30;20.10;93.00
35700;DHT22;21818;51.078;12.108;2023-08-06T06:53:57;20.00;93.00
35700;DHT22;21818;51.078;12.108;2023-08-06T06:56:23;20.00;93.00
35700;DHT22;21818;51.078;12.108;2023-08-06T06:58:48;20.10;93.00
35700;DHT22;21818;51.078;12.108;2023-08-06T07:01:14;20.10;92.90
35700;DHT22;21818;51.078;12.108;2023-08-06T07:03:40;20.10;93.20
35700;DHT22;21818;51.078;12.108;2023-08-06T07:06:06;20.10;92.90
35700;DHT22;21818;51.078;12.108;2023-08-06T07:08:32;20.10;93.20
35700;DHT22;21818;51.078;12.108;2023-08-06T07:11:05;20.10;93.00
35700;DHT22;21818;51.078;12.108;2023-08-06T07:13:32;20.10;92.90
35700;DHT22;21818;51.078;12.108;2023-08-06T07:15:58;20.10;92.90
35700;DHT22;21818;51.078;12.108;2023-08-06T07:18:24;20.20;92.90
35700;DHT22;21818;51.078;12.108;2023-08-06T07:20:54;20.20;92.70
35700;DHT22;21818;51.078;12.108;2023-08-06T07:23:24;20.30;92.70
35700;DHT22;21818;51.078;12.108;2023-08-06T07:25:50;20.30;92.60
35700;DHT22;21818;51.078;12.108;2023-08-06T07:28:16;20.30;92.70
35700;DHT22;21818;51.078;12.108;2023-08-06T07:30:43;20.30;92.60
35700;DHT22;21818;51.078;12.108;2023-08-06T07:33:09;20.30;92.60
35700;DHT22;21818;51.078;12.108;2023-08-06T07:35:35;20.40;92.50
35700;DHT22;21818;51.078;12.108;2023-08-06T07:38:01;20.40;92.50
35700;DHT22;21818;51.078;12.108;2023-08-06T07:40:27;20.40;92.50
35700;DHT22;21818;51.078;12.108;2023-08-06T07:42:53;20.40;92.50
35700;DHT22;21818;51.078;12.108;2023-08-06T07:45:18;20.40;92.40
35700;DHT22;21818;51.078;12.108;2023-08-06T07:47:44;20.40;92.40
35700;DHT22;21818;51.078;12.108;2023-08-06T07:50:10;20.40;92.50
35700;DHT22;21818;51.078;12.108;2023-08-06T07:52:35;20.40;92.40
35700;DHT22;21818;51.078;12.108;2023-08-06T07:55:01;20.40;92.30
35700;DHT22;21818;51.078;12.108;2023-08-06T07:57:30;20.50;92.30
35700;DHT22;21818;51.078;12.108;2023-08-06T07:59:56;20.50;92.30
35700;DHT22;21818;51.078;12.108;2023-08-06T08:02:21;20.50;92.30
35700;DHT22;21818;51.078;12.108;2023-08-06T08:04:47;20.50;92.20
35700;DHT22;21818;51.078;12.108;2023-08-06T08:07:13;20.50;92.20
35700;DHT22;21818;51.078;12.108;2023-08-06T08:09:39;20.60;92.20
35700;DHT22;21818;51.078;12.108;2023-08-06T08:12:04;20.50;92.10
35700;DHT22;21818;51.078;12.108;2023-08-06T08:14:30;20.60;92.10
35700;DHT22;21818;51.078;12.108;2023-08-06T08:17:03;20.60;92.10
35700;DHT22;21818;51.078;12.108;2023-08-06T08:19:30;20.60;92.00
35700;DHT22;21818;51.078;12.108;2023-08-06T08:21:55;20.60;92.00
35700;DHT22;21818;51.078;12.108;2023-08-06T08:24:21;20.60;92.00
35700;DHT22;21818;51.078;12.108;2023-08-06T08:26:50;20.60;92.00
35700;DHT22;21818;51.078;12.108;2023-08-06T08:29:16;20.70;91.90
35700;DHT22;21818;51.078;12.108;2023-08-06T08:31:41;20.70;91.90
35700;DHT22;21818;51.078;12.108;2023-08-06T08:34:07;20.70;91.80
35700;DHT22;21818;51.078;12.108;2023-08-06T08:36:32;20.80;91.80
35700;DHT22;21818;51.078;12.108;2023-08-06T08:38:58;20.90;91.70
35700;DHT22;21818;51.078;12.108;2023-08-06T08:41:24;20.90;91.70
35700;DHT22;21818;51.078;12.108;2023-08-06T08:43:50;20.90;91.70
35700;DHT22;21818;51.078;12.108;2023-08-06T08:46:19;20.90;91.60
35700;DHT22;21818;51.078;12.108;2023-08-06T08:48:45;20.90;91.50
35700;DHT22;21818;51.078;12.108;2023-08-06T08:51:12;21.00;91.50
35700;DHT22;21818;51.078;12.108;2023-08-06T08:53:39;21.00;91.40
35700;DHT22;21818;51.078;12.108;2023-08-06T08:56:05;21.00;91.40
35700;DHT22;21818;51.078;12.108;2023-08-06T08:58:32;21.10;91.30
35700;DHT22;21818;51.078;12.108;2023-08-06T09:00:58;21.10;91.20
35700;DHT22;21818;51.078;12.108;2023-08-06T09:03:23;21.10;91.20
35700;DHT22;21818;51.078;12.108;2023-08-06T09:05:53;21.10;91.10
35700;DHT22;21818;51.078;12.108;2023-08-06T09:08:22;21.20;91.00
35700;DHT22;21818;51.078;12.108;2023-08-06T09:10:50;21.20;91.00
35700;DHT22;21818;51.078;12.108;2023-08-06T09:13:17;21.30;90.90
35700;DHT22;21818;51.078;12.108;2023-08-06T09:15:43;21.30;90.80
35700;DHT22;21818;51.078;12.108;2023-08-06T09:18:12;21.30;90.80
35700;DHT22;21818;51.078;12.108;2023-08-06T09:20:38;21.40;90.70
35700;DHT22;21818;51.078;12.108;2023-08-06T09:23:09;21.40;90.70
35700;DHT22;21818;51.078;12.108;2023-08-06T09:25:39;21.40;90.60
35700;DHT22;21818;51.078;12.108;2023-08-06T09:28:08;21.40;90.60
35700;DHT22;21818;51.078;12.108;2023-08-06T09:30:37;21.50;90.50
35700;DHT22;21818;51.078;12.108;2023-08-06T09:33:08;21.50;90.50
35700;DHT22;21818;51.078;12.108;2023-08-06T09:35:35;21.50;90.50
35700;DHT22;21818;51.078;12.108;2023-08-06T09:38:08;21.50;90.50
35700;DHT22;21818;51.078;12.108;2023-08-06T09:40:35;21.50;90.50
35700;DHT22;21818;51.078;12.108;2023-08-06T09:43:01;21.50;90.50
35700;DHT22;21818;51.078;12.108;2023-08-06T09:45:35;21.60;90.40
35700;DHT22;21818;51.078;12.108;2023-08-06T09:48:05;21.60;90.30
35700;DHT22;21818;51.078;12.108;2023-08-06T09:50:32;21.70;90.30
35700;DHT22;21818;51.078;12.108;2023-08-06T09:52:59;21.70;90.20
35700;DHT22;21818;51.078;12.108;2023-08-06T09:55:26;21.80;90.20
35700;DHT22;21818;51.078;12.108;2023-08-06T09:57:52;21.80;90.10
35700;DHT22;21818;51.078;12.108;2023-08-06T10:00:19;21.80;90.10
35700;DHT22;21818;51.078;12.108;2023-08-06T10:02:45;21.80;90.10
35700;DHT22;21818;51.078;12.108;2023-08-06T10:05:11;21.80;90.00
35700;DHT22;21818;51.078;12.108;2023-08-06T10:07:37;21.80;90.10
35700;DHT22;21818;51.078;12.108;2023-08-06T10:10:06;21.80;90.10
35700;DHT22;21818;51.078;12.108;2023-08-06T10:12:46;21.70;90.00
35700;DHT22;21818;51.078;12.108;2023-08-06T10:15:14;21.70;90.10
35700;DHT22;21818;51.078;12.108;2023-08-06T10:17:42;21.70;90.10
35700;DHT22;21818;51.078;12.108;2023-08-06T10:20:09;21.70;90.10
35700;DHT22;21818;51.078;12.108;2023-08-06T10:22:35;21.70;90.10
35700;DHT22;21818;51.078;12.108;2023-08-06T10:25:02;21.60;90.10
35700;DHT22;21818;51.078;12.108;2023-08-06T10:27:40;21.60;90.10
35700;DHT22;21818;51.078;12.108;2023-08-06T10:30:24;21.70;90.00
35700;DHT22;21818;51.078;12.108;2023-08-06T10:33:01;21.70;90.00
35700;DHT22;21818;51.078;12.108;2023-08-06T10:35:40;21.70;89.90
35700;DHT22;21818;51.078;12.108;2023-08-06T10:38:11;21.80;89.70
35700;DHT22;21818;51.078;12.108;2023-08-06T10:40:39;21.90;89.50
35700;DHT22;21818;51.078;12.108;2023-08-06T10:43:06;21.90;89.20
35700;DHT22;21818;51.078;12.108;2023-08-06T10:45:37;22.00;88.90
35700;DHT22;21818;51.078;12.108;2023-08-06T10:48:03;22.00;88.60
35700;DHT22;21818;51.078;12.108;2023-08-06T10:50:29;22.00;88.30
35700;DHT22;21818;51.078;12.108;2023-08-06T10:52:57;22.00;88.00
35700;DHT22;21818;51.078;12.108;2023-08-06T10:55:28;22.00;87.70
35700;DHT22;21818;51.078;12.108;2023-08-06T10:57:55;22.10;87.60
35700;DHT22;21818;51.078;12.108;2023-08-06T11:00:24;22.10;87.60
35700;DHT22;21818;51.078;12.108;2023-08-06T11:02:51;22.10;87.60
35700;DHT22;21818;51.078;12.108;2023-08-06T11:05:17;22.10;87.50
35700;DHT22;21818;51.078;12.108;2023-08-06T11:07:43;22.20;87.30
35700;DHT22;21818;51.078;12.108;2023-08-06T11:10:10;22.20;87.00
35700;DHT22;21818;51.078;12.108;2023-08-06T11:12:37;22.20;86.90
35700;DHT22;21818;51.078;12.108;2023-08-06T11:15:03;22.30;86.60
35700;DHT22;21818;51.078;12.108;2023-08-06T11:17:30;22.20;86.30
35700;DHT22;21818;51.078;12.108;2023-08-06T11:19:59;22.20;86.50
35700;DHT22;21818;51.078;12.108;2023-08-06T11:22:24;22.20;86.50
35700;DHT22;21818;51.078;12.108;2023-08-06T11:24:50;22.20;86.40
35700;DHT22;21818;51.078;12.108;2023-08-06T11:27:16;22.20;86.40
35700;DHT22;21818;51.078;12.108;2023-08-06T11:29:43;22.20;86.30
35700;DHT22;21818;51.078;12.108;2023-08-06T11:32:10;22.20;86.10
35700;DHT22;21818;51.078;12.108;2023-08-06T11:34:36;22.20;85.90
35700;DHT22;21818;51.078;12.108;2023-08-06T11:37:05;22.30;85.80
35700;DHT22;21818;51.078;12.108;2023-08-06T11:39:35;22.40;85.60
35700;DHT22;21818;51.078;12.108;2023-08-06T11:42:08;22.40;85.40
35700;DHT22;21818;51.078;12.108;2023-08-06T11:44:37;22.50;85.20
35700;DHT22;21818;51.078;12.108;2023-08-06T11:47:04;22.60;85.20
35700;DHT22;21818;51.078;12.108;2023-08-06T11:52:13;22.60;85.20
35700;DHT22;21818;51.078;12.108;2023-08-06T11:54:38;22.50;84.90
35700;DHT22;21818;51.078;12.108;2023-08-06T11:57:08;22.50;84.90
35700;DHT22;21818;51.078;12.108;2023-08-06T11:59:33;22.60;84.90
35700;DHT22;21818;51.078;12.108;2023-08-06T12:02:08;22.60;84.80
35700;DHT22;21818;51.078;12.108;2023-08-06T12:05:14;22.70;84.70
35700;DHT22;21818;51.078;12.108;2023-08-06T12:07:42;22.80;84.30
35700;DHT22;21818;51.078;12.108;2023-08-06T12:10:08;22.80;84.40
35700;DHT22;21818;51.078;12.108;2023-08-06T12:12:34;22.80;84.30
35700;DHT22;21818;51.078;12.108;2023-08-06T12:15:00;22.80;84.20
35700;DHT22;21818;51.078;12.108;2023-08-06T12:17:26;22.80;83.80
35700;DHT22;21818;51.078;12.108;2023-08-06T12:19:52;22.90;83.60
35700;DHT22;21818;51.078;12.108;2023-08-06T12:22:18;23.00;83.30
35700;DHT22;21818;51.078;12.108;2023-08-06T12:24:45;23.50;81.60
35700;DHT22;21818;51.078;12.108;2023-08-06T12:27:11;24.10;80.00
35700;DHT22;21818;51.078;12.108;2023-08-06T12:29:44;24.10;79.90
35700;DHT22;21818;51.078;12.108;2023-08-06T12:32:11;24.00;80.00
35700;DHT22;21818;51.078;12.108;2023-08-06T12:34:41;23.70;80.80
35700;DHT22;21818;51.078;12.108;2023-08-06T12:37:08;23.50;81.20
35700;DHT22;21818;51.078;12.108;2023-08-06T12:39:34;23.40;81.60
35700;DHT22;21818;51.078;12.108;2023-08-06T12:42:02;23.20;81.80
35700;DHT22;21818;51.078;12.108;2023-08-06T12:44:27;23.20;82.00
35700;DHT22;21818;51.078;12.108;2023-08-06T12:46:54;23.20;82.00
35700;DHT22;21818;51.078;12.108;2023-08-06T12:49:20;23.10;81.90
35700;DHT22;21818;51.078;12.108;2023-08-06T12:51:50;23.20;81.80
35700;DHT22;21818;51.078;12.108;2023-08-06T12:54:20;23.20;81.80
35700;DHT22;21818;51.078;12.108;2023-08-06T12:56:46;23.20;81.70
35700;DHT22;21818;51.078;12.108;2023-08-06T12:59:14;23.20;81.60
35700;DHT22;21818;51.078;12.108;2023-08-06T13:01:40;23.40;81.40
35700;DHT22;21818;51.078;12.108;2023-08-06T13:04:06;23.40;81.30
35700;DHT22;21818;51.078;12.108;2023-08-06T13:06:32;23.70;80.80
35700;DHT22;21818;51.078;12.108;2023-08-06T13:09:11;24.30;79.60
35700;DHT22;21818;51.078;12.108;2023-08-06T13:11:38;24.80;78.60
35700;DHT22;21818;51.078;12.108;2023-08-06T13:14:11;25.20;77.90
35700;DHT22;21818;51.078;12.108;2023-08-06T13:16:40;25.40;77.40
35700;DHT22;21818;51.078;12.108;2023-08-06T13:19:07;25.30;77.40
35700;DHT22;21818;51.078;12.108;2023-08-06T13:22:00;25.30;77.60
35700;DHT22;21818;51.078;12.108;2023-08-06T13:24:27;25.20;77.00
35700;DHT22;21818;51.078;12.108;2023-08-06T13:26:53;24.80;78.10
35700;DHT22;21818;51.078;12.108;2023-08-06T13:29:18;24.60;78.70
35700;DHT22;21818;51.078;12.108;2023-08-06T13:31:44;24.30;79.00
35700;DHT22;21818;51.078;12.108;2023-08-06T13:34:09;24.20;79.10
35700;DHT22;21818;51.078;12.108;2023-08-06T13:36:35;24.10;79.30
35700;DHT22;21818;51.078;12.108;2023-08-06T13:39:01;24.00;79.40
35700;DHT22;21818;51.078;12.108;2023-08-06T13:41:26;23.90;79.50
35700;DHT22;21818;51.078;12.108;2023-08-06T13:43:52;23.80;79.60
35700;DHT22;21818;51.078;12.108;2023-08-06T13:46:18;23.70;79.60
35700;DHT22;21818;51.078;12.108;2023-08-06T13:48:46;23.80;79.70
35700;DHT22;21818;51.078;12.108;2023-08-06T13:51:12;24.00;79.10
35700;DHT22;21818;51.078;12.108;2023-08-06T13:53:38;23.90;79.10
35700;DHT22;21818;51.078;12.108;2023-08-06T13:56:05;23.80;79.30
35700;DHT22;21818;51.078;12.108;2023-08-06T13:58:31;23.60;79.50
35700;DHT22;21818;51.078;12.108;2023-08-06T14:00:57;23.50;79.70
35700;DHT22;21818;51.078;12.108;2023-08-06T14:03:23;23.50;79.90
35700;DHT22;21818;51.078;12.108;2023-08-06T14:05:49;23.40;80.00
35700;DHT22;21818;51.078;12.108;2023-08-06T14:08:15;23.30;80.10
35700;DHT22;21818;51.078;12.108;2023-08-06T14:10:43;23.30;80.20
35700;DHT22;21818;51.078;12.108;2023-08-06T14:13:09;23.20;80.30
35700;DHT22;21818;51.078;12.108;2023-08-06T14:15:35;23.10;80.40
35700;DHT22;21818;51.078;12.108;2023-08-06T14:18:02;23.10;80.50
35700;DHT22;21818;51.078;12.108;2023-08-06T14:20:28;23.00;80.50
35700;DHT22;21818;51.078;12.108;2023-08-06T14:22:53;23.00;80.70
35700;DHT22;21818;51.078;12.108;2023-08-06T14:25:19;22.90;80.70
35700;DHT22;21818;51.078;12.108;2023-08-06T14:27:44;22.90;80.90
35700;DHT22;21818;51.078;12.108;2023-08-06T14:30:10;22.90;80.90
35700;DHT22;21818;51.078;12.108;2023-08-06T14:32:37;22.90;81.20
35700;DHT22;21818;51.078;12.108;2023-08-06T14:35:03;22.80;82.00
35700;DHT22;21818;51.078;12.108;2023-08-06T14:37:29;22.70;82.50
35700;DHT22;21818;51.078;12.108;2023-08-06T14:39:54;22.60;83.40
35700;DHT22;21818;51.078;12.108;2023-08-06T14:42:20;22.50;84.30
35700;DHT22;21818;51.078;12.108;2023-08-06T14:44:46;22.30;85.00
35700;DHT22;21818;51.078;12.108;2023-08-06T14:47:12;22.20;85.30
35700;DHT22;21818;51.078;12.108;2023-08-06T14:49:38;22.20;85.50
35700;DHT22;21818;51.078;12.108;2023-08-06T14:52:04;22.10;85.80
35700;DHT22;21818;51.078;12.108;2023-08-06T14:54:30;22.10;86.30
35700;DHT22;21818;51.078;12.108;2023-08-06T14:56:56;22.00;87.00
35700;DHT22;21818;51.078;12.108;2023-08-06T14:59:22;22.10;87.50
35700;DHT22;21818;51.078;12.108;2023-08-06T15:01:48;22.10;87.80
35700;DHT22;21818;51.078;12.108;2023-08-06T15:04:13;22.20;88.00
35700;DHT22;21818;51.078;12.108;2023-08-06T15:06:39;22.20;87.70
35700;DHT22;21818;51.078;12.108;2023-08-06T15:09:04;22.20;88.30
35700;DHT22;21818;51.078;12.108;2023-08-06T15:11:30;22.10;88.90
35700;DHT22;21818;51.078;12.108;2023-08-06T15:13:55;22.00;89.10
35700;DHT22;21818;51.078;12.108;2023-08-06T15:16:21;21.90;89.20
35700;DHT22;21818;51.078;12.108;2023-08-06T15:18:47;21.90;89.60
35700;DHT22;21818;51.078;12.108;2023-08-06T15:21:14;21.80;90.00